Anacostia, District of Columbia
Current Conditions -  °F | °C
As of 8:52 AM on Friday 19 Dec 2014 (Local Time) from KDCA Reporting Station
Overcast Overcast  
Wind Chill: 32°   Ceiling: 3500
Heat Index: 39°   Visibility: 10mi
Dew Point: 22°   Wind: 12mph
Humidity: 50%   Direction: 310°NW
Pressure: 30.17"   Gusts: NA
Location:  38.8618°N, 77.0026°W
Report Text: KDCA 191352Z 31010KT 10SM OVC035 04/M06 A3017 RMK AO2 SLP217 T00391056
Loading
Personal Weather Stations






























Interactive Weather Map New forecast layout! Learn more

10-Day Weather Forecast

Advertisements
Track Severe Weather on mobile